createdAt,value
2018-11-23T00:00:20.620Z,42.83
2018-11-23T00:02:49.747Z,42.60
2018-11-23T00:05:18.530Z,41.40
2018-11-23T00:07:47.536Z,40.57
2018-11-23T00:15:17.286Z,40.70
2018-11-23T00:17:46.933Z,44.80
2018-11-23T00:20:17.900Z,41.50
2018-11-23T00:22:46.382Z,44.38
2018-11-23T00:25:19.816Z,39.72
2018-11-23T00:27:48.559Z,41.60
2018-11-23T00:30:21.301Z,40.97
2018-11-23T00:32:50.227Z,38.63
2018-11-23T00:35:20.531Z,37.40
2018-11-23T00:37:50.200Z,38.37
2018-11-23T00:40:20.059Z,40.43
2018-11-23T00:42:48.657Z,39.20
2018-11-23T00:45:17.582Z,41.53
2018-11-23T00:47:46.746Z,38.00
2018-11-23T00:55:16.227Z,37.03
2018-11-23T00:57:44.699Z,38.87
2018-11-23T01:00:23.096Z,41.30
2018-11-23T01:02:52.046Z,41.60
2018-11-23T01:05:20.743Z,37.60
2018-11-23T01:07:49.565Z,40.07
2018-11-23T01:10:19.355Z,41.87
2018-11-23T01:12:48.839Z,42.23
2018-11-23T01:15:17.966Z,42.67
2018-11-23T01:17:46.462Z,40.88
2018-11-23T01:25:10.856Z,36.47
2018-11-23T01:27:40.130Z,41.60
2018-11-23T01:30:13.143Z,42.93
2018-11-23T01:32:41.663Z,40.70
2018-11-23T01:35:10.170Z,40.67
2018-11-23T01:37:39.203Z,41.97
2018-11-23T01:40:11.963Z,38.40
2018-11-23T01:42:40.463Z,40.87
2018-11-23T01:45:09.732Z,36.90
2018-11-23T01:47:38.395Z,37.00
2018-11-23T01:50:10.485Z,37.17
2018-11-23T01:52:38.954Z,36.77
2018-11-23T01:55:09.035Z,36.65
2018-11-23T01:57:39.903Z,33.73
2018-11-23T02:00:12.817Z,33.33
2018-11-23T02:02:41.320Z,34.57
2018-11-23T02:05:10.298Z,34.10
2018-11-23T02:07:39.469Z,34.10
2018-11-23T02:10:09.121Z,34.10
2018-11-23T02:12:37.595Z,34.10
2018-11-23T02:15:10.155Z,36.77
2018-11-23T02:17:38.614Z,35.57
2018-11-23T02:20:09.012Z,35.70
2018-11-23T02:22:37.499Z,34.90
2018-11-23T02:25:07.483Z,35.50
2018-11-23T02:27:36.717Z,34.70
2018-11-23T02:30:24.386Z,33.40
2018-11-23T02:32:52.860Z,31.90
2018-11-23T02:35:21.355Z,33.10
2018-11-23T02:37:49.866Z,33.00
2018-11-23T02:40:19.693Z,31.65
2018-11-23T02:42:49.299Z,33.50
2018-11-23T02:45:19.043Z,34.38
2018-11-23T02:47:48.206Z,32.97
2018-11-23T02:50:18.543Z,33.00
2018-11-23T02:52:47.884Z,32.35
2018-11-23T02:55:18.371Z,31.93
2018-11-23T02:57:47.058Z,31.80
2018-11-23T03:05:17.613Z,33.80
2018-11-23T03:07:46.300Z,32.73
2018-11-23T03:15:11.633Z,30.87
2018-11-23T03:17:40.222Z,35.10
2018-11-23T03:20:11.154Z,33.83
2018-11-23T03:22:40.268Z,34.38
2018-11-23T03:25:10.247Z,34.83
2018-11-23T03:27:38.943Z,34.50
2018-11-23T03:30:23.420Z,32.45
2018-11-23T03:32:52.890Z,35.03
2018-11-23T03:35:22.017Z,34.10
2018-11-23T03:37:50.541Z,33.40
2018-11-23T03:40:19.303Z,36.90
2018-11-23T03:42:47.911Z,34.90
2018-11-23T03:50:10.501Z,31.20
2018-11-23T03:52:39.313Z,33.03
2018-11-23T03:55:07.834Z,35.10
2018-11-23T03:57:36.379Z,35.20
2018-11-23T04:00:17.081Z,32.43
2018-11-23T04:02:40.410Z,34.40
2018-11-23T04:05:09.277Z,33.97
2018-11-23T04:07:38.535Z,31.93
2018-11-23T04:10:09.207Z,31.97
2018-11-23T04:12:37.689Z,30.90
2018-11-23T04:15:07.354Z,30.70
2018-11-23T04:17:35.854Z,33.20
2018-11-23T04:20:04.944Z,33.80
2018-11-23T04:22:33.437Z,31.93
2018-11-23T04:25:02.010Z,32.77
2018-11-23T04:27:30.499Z,32.98
2018-11-23T04:29:58.974Z,34.50
2018-11-23T04:32:28.114Z,34.47
2018-11-23T04:34:56.591Z,34.17
2018-11-23T04:37:25.256Z,32.20
2018-11-23T04:39:53.942Z,31.20
2018-11-23T04:42:22.791Z,31.83
2018-11-23T04:44:51.276Z,30.90
2018-11-23T04:47:20.742Z,29.77
2018-11-23T04:49:49.199Z,27.55
2018-11-23T04:52:17.669Z,27.50
2018-11-23T04:54:46.628Z,26.10
2018-11-23T05:02:13.287Z,26.90
2018-11-23T05:04:41.831Z,32.80
2018-11-23T05:07:10.278Z,38.43
2018-11-23T05:09:38.769Z,37.97
2018-11-23T05:12:07.234Z,39.10
2018-11-23T05:14:35.693Z,34.03
2018-11-23T05:17:05.028Z,33.93
2018-11-23T05:19:33.573Z,29.63
2018-11-23T05:22:02.047Z,27.10
2018-11-23T05:24:30.546Z,28.60
2018-11-23T05:26:59.015Z,27.83
2018-11-23T05:29:27.553Z,26.17
2018-11-23T05:31:57.320Z,26.93
2018-11-23T05:34:26.113Z,25.20
2018-11-23T05:36:55.307Z,25.37
2018-11-23T05:39:23.911Z,31.07
2018-11-23T05:41:52.407Z,29.60
2018-11-23T05:44:21.315Z,27.70
2018-11-23T05:46:50.728Z,28.53
2018-11-23T05:49:19.183Z,27.30
2018-11-23T05:51:47.841Z,26.47
2018-11-23T05:54:17.333Z,26.50
2018-11-23T05:56:45.791Z,27.47
2018-11-23T06:04:14.766Z,24.60
2018-11-23T06:06:43.608Z,23.40
2018-11-23T06:09:12.099Z,25.27
2018-11-23T06:11:40.606Z,25.10
2018-11-23T06:14:09.079Z,25.90
2018-11-23T06:16:37.550Z,26.27
2018-11-23T06:19:06.238Z,26.50
2018-11-23T06:21:34.772Z,24.77
2018-11-23T06:24:03.279Z,27.00
2018-11-23T06:26:32.890Z,27.03
2018-11-23T06:29:02.200Z,25.57
2018-11-23T06:31:30.682Z,25.73
2018-11-23T06:33:59.176Z,25.30
2018-11-23T06:36:27.668Z,25.03
2018-11-23T06:38:56.150Z,25.17
2018-11-23T06:41:24.658Z,24.30
2018-11-23T06:43:55.147Z,27.07
2018-11-23T06:46:25.328Z,25.50
2018-11-23T06:48:54.335Z,27.67
2018-11-23T06:51:23.755Z,25.00
2018-11-23T06:53:52.250Z,25.67
2018-11-23T06:56:20.759Z,22.98
2018-11-23T06:58:49.626Z,26.03
2018-11-23T07:01:20.088Z,25.77
2018-11-23T07:03:48.686Z,26.97
2018-11-23T07:06:17.470Z,27.00
2018-11-23T07:08:52.217Z,27.90
2018-11-23T07:16:10.993Z,27.67
2018-11-23T07:18:39.461Z,28.85
2018-11-23T07:21:09.528Z,23.87
2018-11-23T07:23:38.050Z,25.90
2018-11-23T07:26:07.480Z,28.20
2018-11-23T07:28:36.604Z,28.00
2018-11-23T07:31:06.199Z,27.20
2018-11-23T07:33:34.691Z,27.33
2018-11-23T07:36:03.195Z,27.40
2018-11-23T07:38:32.528Z,26.90
2018-11-23T07:41:12.294Z,26.80
2018-11-23T07:43:40.842Z,26.80
2018-11-23T07:46:09.322Z,28.30
2018-11-23T07:48:38.459Z,27.07
2018-11-23T07:51:06.991Z,24.37
2018-11-23T07:53:35.558Z,25.37
2018-11-23T07:56:04.080Z,24.67
2018-11-23T07:58:32.616Z,24.43
2018-11-23T08:01:01.112Z,22.90
2018-11-23T08:03:29.611Z,24.67
2018-11-23T08:05:58.873Z,24.63
2018-11-23T08:08:27.354Z,22.00
2018-11-23T08:10:56.358Z,23.67
2018-11-23T08:13:25.100Z,25.33
2018-11-23T08:15:53.586Z,23.80
2018-11-23T08:18:22.034Z,24.87
2018-11-23T08:20:50.518Z,22.80
2018-11-23T08:23:20.779Z,24.23
2018-11-23T08:25:49.271Z,24.87
2018-11-23T08:28:18.152Z,22.43
2018-11-23T08:30:47.346Z,22.87
2018-11-23T08:38:10.199Z,20.30
2018-11-23T08:40:39.080Z,21.60
2018-11-23T08:43:09.069Z,21.20
2018-11-23T08:45:37.603Z,20.60
2018-11-23T08:48:06.246Z,21.00
2018-11-23T08:50:35.227Z,21.27
2018-11-23T08:53:04.681Z,20.17
2018-11-23T08:55:33.142Z,20.53
2018-11-23T08:58:01.706Z,20.50
2018-11-23T09:00:30.814Z,18.50
2018-11-23T09:03:00.807Z,20.30
2018-11-23T09:05:30.233Z,17.70
2018-11-23T09:07:59.034Z,18.50
2018-11-23T09:10:29.790Z,17.73
2018-11-23T09:13:00.398Z,20.10
2018-11-23T09:15:28.892Z,21.33
2018-11-23T09:17:57.383Z,18.50
2018-11-23T09:20:26.461Z,18.20
2018-11-23T09:22:55.104Z,18.37
2018-11-23T09:25:24.194Z,17.55
2018-11-23T09:27:53.164Z,18.50
2018-11-23T09:30:23.094Z,18.40
2018-11-23T09:32:52.671Z,18.20
2018-11-23T09:35:21.393Z,19.17
2018-11-23T09:37:50.483Z,17.30
2018-11-23T09:40:20.384Z,17.87
2018-11-23T09:42:50.303Z,19.00
2018-11-23T09:45:20.479Z,18.05
2018-11-23T09:47:50.462Z,17.73
2018-11-23T09:50:20.120Z,17.67
2018-11-23T09:52:50.662Z,18.07
2018-11-23T09:55:19.772Z,17.77
2018-11-23T09:57:48.287Z,17.37
2018-11-23T10:00:23.276Z,17.74
2018-11-23T10:02:53.323Z,17.13
2018-11-23T10:05:22.181Z,15.90
2018-11-23T10:07:53.053Z,15.97
2018-11-23T10:10:22.552Z,15.13
2018-11-23T10:12:54.137Z,14.73
2018-11-23T10:15:23.530Z,16.87
2018-11-23T10:17:53.132Z,16.23
2018-11-23T10:20:24.093Z,15.13
2018-11-23T10:22:53.100Z,16.00
2018-11-23T10:25:23.259Z,16.30
2018-11-23T10:27:51.837Z,14.83
2018-11-23T10:30:22.890Z,14.50
2018-11-23T10:32:53.801Z,15.63
2018-11-23T10:35:24.382Z,17.27
2018-11-23T10:37:54.226Z,16.43
2018-11-23T10:40:24.578Z,17.23
2018-11-23T10:42:53.786Z,18.10
2018-11-23T10:45:26.318Z,17.35
2018-11-23T10:47:55.682Z,16.10
2018-11-23T10:50:25.855Z,19.60
2018-11-23T10:52:54.797Z,18.47
2018-11-23T10:55:25.123Z,18.32
2018-11-23T10:57:53.819Z,17.87
2018-11-23T11:00:27.896Z,17.50
2018-11-23T11:03:01.757Z,18.70
2018-11-23T11:05:42.362Z,17.57
2018-11-23T11:08:10.870Z,16.30
2018-11-23T11:10:39.371Z,14.30
2018-11-23T11:13:07.922Z,15.17
2018-11-23T11:15:36.471Z,16.82
2018-11-23T11:18:05.025Z,16.57
2018-11-23T11:20:34.153Z,17.55
2018-11-23T11:23:02.860Z,17.73
2018-11-23T11:25:32.296Z,16.70
2018-11-23T11:28:00.803Z,17.73
2018-11-23T11:30:29.248Z,19.98
2018-11-23T11:32:57.734Z,18.30
2018-11-23T11:35:26.267Z,17.75
2018-11-23T11:37:54.771Z,17.60
2018-11-23T11:40:23.283Z,16.87
2018-11-23T11:42:52.357Z,17.67
2018-11-23T11:45:20.890Z,17.10
2018-11-23T11:47:49.414Z,17.02
2018-11-23T11:50:17.941Z,16.20
2018-11-23T11:52:47.729Z,15.00
2018-11-23T11:55:19.428Z,15.03
2018-11-23T11:57:48.940Z,14.30
2018-11-23T12:00:24.406Z,16.06
2018-11-23T12:02:53.742Z,13.50
2018-11-23T12:05:22.242Z,15.10
2018-11-23T12:07:50.766Z,16.20
2018-11-23T12:10:21.814Z,16.27
2018-11-23T12:12:50.307Z,14.80
2018-11-23T12:15:18.831Z,16.75
2018-11-23T12:17:47.934Z,19.00
2018-11-23T12:25:13.064Z,15.83
2018-11-23T12:27:42.355Z,17.07
2018-11-23T12:30:14.021Z,17.47
2018-11-23T12:32:43.499Z,19.23
2018-11-23T12:35:14.220Z,17.10
2018-11-23T12:37:42.720Z,17.70
2018-11-23T12:40:12.839Z,19.40
2018-11-23T12:42:42.127Z,18.33
2018-11-23T12:45:13.059Z,18.98
2018-11-23T12:47:41.647Z,19.13
2018-11-23T12:50:12.096Z,18.10
2018-11-23T12:52:40.891Z,19.27
2018-11-23T12:55:10.066Z,18.45
2018-11-23T12:57:40.185Z,19.53
2018-11-23T13:00:16.818Z,20.60
2018-11-23T13:02:47.258Z,18.30
2018-11-23T13:05:18.683Z,19.12
2018-11-23T13:07:47.170Z,22.93
2018-11-23T13:15:14.607Z,23.00
2018-11-23T13:17:43.130Z,22.13
2018-11-23T13:20:13.482Z,22.75
2018-11-23T13:22:42.048Z,24.40
2018-11-23T13:25:13.071Z,24.65
2018-11-23T13:27:41.682Z,24.93
2018-11-23T13:30:13.072Z,23.07
2018-11-23T13:32:42.340Z,24.57
2018-11-23T13:35:13.137Z,23.10
2018-11-23T13:37:41.999Z,23.90
2018-11-23T13:40:14.251Z,24.18
2018-11-23T13:42:43.095Z,24.77
2018-11-23T13:45:14.281Z,23.22
2018-11-23T13:47:42.930Z,24.97
2018-11-23T13:50:13.699Z,27.82
2018-11-23T13:52:45.040Z,25.20
2018-11-23T14:00:12.147Z,23.77
2018-11-23T14:02:40.775Z,24.27
2018-11-23T14:05:12.383Z,24.50
2018-11-23T14:07:41.339Z,25.57
2018-11-23T14:10:12.063Z,25.50
2018-11-23T14:12:41.067Z,24.50
2018-11-23T14:15:13.802Z,25.13
2018-11-23T14:17:43.316Z,24.17
2018-11-23T14:20:13.059Z,25.15
2018-11-23T14:22:41.591Z,25.90
2018-11-23T14:25:12.326Z,26.10
2018-11-23T14:27:41.244Z,24.87
2018-11-23T14:30:13.633Z,22.07
2018-11-23T14:32:42.239Z,21.73
2018-11-23T14:35:12.776Z,20.35
2018-11-23T14:37:42.374Z,20.70
2018-11-23T14:40:12.103Z,20.57
2018-11-23T14:42:41.784Z,19.27
2018-11-23T14:45:13.085Z,21.20
2018-11-23T14:47:41.984Z,20.25
2018-11-23T14:50:13.799Z,20.45
2018-11-23T14:52:43.674Z,21.83
2018-11-23T14:55:13.023Z,19.77
2018-11-23T14:57:42.367Z,21.00
2018-11-23T15:00:29.466Z,22.10
2018-11-23T15:02:58.976Z,20.50
2018-11-23T15:05:27.574Z,22.13
2018-11-23T15:07:57.210Z,22.57
2018-11-23T15:10:27.073Z,20.77
2018-11-23T15:12:56.896Z,20.50
2018-11-23T15:15:26.939Z,22.60
2018-11-23T15:17:56.128Z,21.62
2018-11-23T15:20:29.724Z,22.10
2018-11-23T15:23:02.545Z,23.23
2018-11-23T15:25:31.149Z,24.40
2018-11-23T15:27:59.640Z,24.73
2018-11-23T15:30:31.705Z,24.35
2018-11-23T15:33:00.376Z,25.07
2018-11-23T15:35:30.117Z,25.93
2018-11-23T15:37:58.649Z,26.60
2018-11-23T15:40:28.331Z,25.82
2018-11-23T15:42:58.823Z,28.17
2018-11-23T15:45:28.520Z,30.35
2018-11-23T15:47:58.165Z,31.27
2018-11-23T15:50:31.155Z,31.87
2018-11-23T15:52:59.687Z,31.10
2018-11-23T15:55:30.759Z,28.80
2018-11-23T15:58:02.530Z,31.10
2018-11-23T16:00:33.494Z,35.05
2018-11-23T16:03:02.216Z,34.30
2018-11-23T16:05:30.883Z,34.70
2018-11-23T16:08:01.534Z,33.47
2018-11-23T16:10:34.541Z,32.63
2018-11-23T16:13:11.169Z,36.00
2018-11-23T16:15:34.586Z,36.03
2018-11-23T16:18:03.579Z,36.20
2018-11-23T16:20:34.804Z,32.73
2018-11-23T16:23:09.289Z,33.97
2018-11-23T16:25:38.191Z,31.70
2018-11-23T16:28:08.074Z,35.30
2018-11-23T16:30:38.515Z,36.03
2018-11-23T16:33:08.694Z,35.23
2018-11-23T16:35:38.282Z,35.40
2018-11-23T16:38:09.724Z,42.23
2018-11-23T16:40:39.632Z,31.83
2018-11-23T16:43:09.767Z,32.50
2018-11-23T16:45:40.082Z,31.50
2018-11-23T16:48:10.696Z,30.00
2018-11-23T16:50:40.501Z,31.00
2018-11-23T16:53:10.180Z,29.83
2018-11-23T16:55:38.693Z,27.47
2018-11-23T16:58:08.710Z,29.90
2018-11-23T17:00:38.655Z,30.67
2018-11-23T17:03:10.817Z,29.60
2018-11-23T17:05:42.796Z,30.90
2018-11-23T17:08:11.559Z,30.37
2018-11-23T17:10:40.700Z,33.40
2018-11-23T17:13:09.462Z,34.50
2018-11-23T17:15:38.915Z,33.47
2018-11-23T17:18:07.615Z,34.07
2018-11-23T17:20:36.619Z,32.30
2018-11-23T17:23:06.394Z,33.67
2018-11-23T17:25:34.883Z,33.83
2018-11-23T17:28:05.271Z,32.75
2018-11-23T17:30:35.419Z,33.63
2018-11-23T17:33:04.223Z,34.17
2018-11-23T17:35:32.721Z,32.42
2018-11-23T17:38:01.191Z,34.73
2018-11-23T17:40:32.410Z,32.77
2018-11-23T17:43:00.922Z,31.33
2018-11-23T17:45:31.226Z,30.62
2018-11-23T17:48:00.112Z,31.67
2018-11-23T17:50:30.279Z,31.60
2018-11-23T17:52:59.236Z,30.83
2018-11-23T17:55:27.840Z,34.23
2018-11-23T17:57:56.947Z,31.37
2018-11-23T18:00:28.647Z,31.60
2018-11-23T18:02:59.290Z,31.60
2018-11-23T18:05:28.485Z,30.57
2018-11-23T18:07:57.271Z,31.47
2018-11-23T18:10:27.469Z,32.20
2018-11-23T18:12:56.685Z,32.57
2018-11-23T18:15:26.391Z,32.70
2018-11-23T18:17:55.797Z,31.93
2018-11-23T18:20:25.190Z,32.13
2018-11-23T18:22:54.910Z,32.17
2018-11-23T18:25:25.967Z,32.58
2018-11-23T18:27:59.753Z,33.40
2018-11-23T18:30:30.040Z,33.13
2018-11-23T18:32:58.752Z,31.53
2018-11-23T18:35:27.637Z,31.73
2018-11-23T18:37:56.214Z,31.37
2018-11-23T18:40:24.726Z,31.97
2018-11-23T18:42:54.115Z,31.57
2018-11-23T18:45:23.717Z,32.57
2018-11-23T18:47:52.912Z,31.10
2018-11-23T18:50:21.958Z,30.88
2018-11-23T18:52:51.507Z,31.73
2018-11-23T18:55:20.214Z,30.07
2018-11-23T18:57:49.482Z,32.83
2018-11-23T19:00:18.082Z,30.00
2018-11-23T19:02:54.494Z,30.60
2018-11-23T19:05:25.196Z,29.70
2018-11-23T19:07:53.910Z,35.27
2018-11-23T19:10:22.426Z,31.30
2018-11-23T19:12:52.131Z,30.03
2018-11-23T19:15:25.434Z,31.12
2018-11-23T19:17:49.548Z,29.32
2018-11-23T19:20:21.262Z,31.12
2018-11-23T19:22:53.674Z,29.43
2018-11-23T19:25:22.318Z,29.23
2018-11-23T19:27:51.500Z,29.10
2018-11-23T19:30:28.814Z,30.93
2018-11-23T19:32:53.812Z,27.93
2018-11-23T19:35:23.083Z,29.00
2018-11-23T19:37:51.572Z,28.40
2018-11-23T19:40:20.371Z,27.90
2018-11-23T19:42:48.847Z,24.87
2018-11-23T19:45:17.894Z,25.05
2018-11-23T19:47:47.219Z,24.92
2018-11-23T19:50:18.925Z,26.92
2018-11-23T19:52:48.479Z,25.97
2018-11-23T19:55:18.285Z,26.06
2018-11-23T19:57:47.005Z,23.40
2018-11-23T20:05:16.033Z,22.90
2018-11-23T20:07:46.175Z,22.63
2018-11-23T20:15:16.666Z,25.13
2018-11-23T20:17:46.690Z,24.80
2018-11-23T20:25:12.248Z,21.63
2018-11-23T20:27:40.962Z,20.53
2018-11-23T20:30:12.664Z,21.10
2018-11-23T20:32:41.927Z,19.57
2018-11-23T20:35:12.647Z,20.72
2018-11-23T20:37:41.167Z,20.17
2018-11-23T20:40:13.012Z,19.00
2018-11-23T20:42:41.523Z,19.95
2018-11-23T20:45:11.018Z,20.27
2018-11-23T20:47:39.577Z,17.90
2018-11-23T20:50:10.526Z,18.47
2018-11-23T20:52:39.078Z,19.07
2018-11-23T20:55:10.651Z,18.87
2018-11-23T20:57:40.159Z,18.10
2018-11-23T21:00:15.517Z,17.43
2018-11-23T21:02:44.831Z,17.87
2018-11-23T21:05:14.724Z,18.43
2018-11-23T21:07:43.269Z,18.87
2018-11-23T21:10:19.981Z,20.65
2018-11-23T21:12:41.830Z,17.80
2018-11-23T21:15:18.087Z,19.17
2018-11-23T21:17:46.621Z,17.47
2018-11-23T21:30:12.931Z,16.40
2018-11-23T21:32:41.668Z,16.87
2018-11-23T21:35:11.161Z,19.97
2018-11-23T21:37:39.687Z,22.00
2018-11-23T21:40:09.787Z,20.07
2018-11-23T21:42:38.453Z,20.07
2018-11-23T21:45:11.664Z,19.80
2018-11-23T21:47:40.186Z,22.80
2018-11-23T21:50:10.750Z,20.80
2018-11-23T21:52:39.291Z,21.23
2018-11-23T21:55:10.883Z,19.17
2018-11-23T21:57:39.407Z,20.85
2018-11-23T22:05:04.207Z,18.40
2018-11-23T22:07:32.871Z,20.87
2018-11-23T22:10:01.450Z,20.95
2018-11-23T22:12:30.670Z,21.83
2018-11-23T22:14:59.167Z,21.30
2018-11-23T22:17:27.791Z,20.00
2018-11-23T22:19:56.318Z,19.80
2018-11-23T22:22:24.767Z,19.80
2018-11-23T22:24:53.766Z,21.70
2018-11-23T22:27:22.290Z,20.57
2018-11-23T22:29:52.137Z,22.37
2018-11-23T22:32:20.798Z,20.72
2018-11-23T22:34:49.350Z,20.67
2018-11-23T22:37:17.815Z,21.43
2018-11-23T22:39:46.344Z,23.13
2018-11-23T22:47:12.775Z,21.63
2018-11-23T22:49:41.247Z,20.97
2018-11-23T22:52:09.734Z,22.63
2018-11-23T22:54:38.427Z,23.17
2018-11-23T22:57:11.656Z,23.93
2018-11-23T22:59:35.427Z,23.02
2018-11-23T23:02:04.768Z,24.03
2018-11-23T23:04:33.530Z,24.63
2018-11-23T23:07:02.008Z,22.90
2018-11-23T23:09:31.524Z,23.20
2018-11-23T23:12:00.091Z,23.90
2018-11-23T23:14:29.324Z,25.40
2018-11-23T23:16:58.003Z,23.80
2018-11-23T23:19:26.526Z,24.30
2018-11-23T23:21:55.263Z,25.50
2018-11-23T23:24:23.788Z,25.10
2018-11-23T23:26:52.271Z,24.73
2018-11-23T23:29:20.791Z,25.15
2018-11-23T23:31:49.974Z,24.87
2018-11-23T23:34:18.459Z,26.15
2018-11-23T23:36:47.035Z,27.23
2018-11-23T23:44:13.923Z,25.90
2018-11-23T23:46:42.398Z,25.88
2018-11-23T23:49:11.527Z,26.53
2018-11-23T23:51:40.130Z,29.33
2018-11-23T23:54:08.575Z,27.77
2018-11-23T23:56:37.103Z,29.30
2018-11-23T23:59:05.928Z,30.77
